Nearby METAR Reports

 

KTEB - Teterboro, New Jersey, USA
Distance from station: ENE 2mi, 4km
Updated: 11/17/2017 10:51pm
Clear
Clear
 Wind from NW
Wind: NW 6 mph , 9 km/h
Temperature: 37°F , 3°C
Wind Chill: 32°F , 0°C
Dew Point: 16°F , -9°C
Humidity: 41%
Barometer: 30.07 inHg , 1018.3 hPa
Clouds: Clear
Visibility: 10 miles , 16 km
2017/11/18 03:51 KTEB 180351Z 31005KT 10SM CLR 03/M09 A3007 RMK AO2 SLP181 T00281094
KNYC - Nyc/Central Park, New York, USA
Distance from station: SE 8mi, 13km
Updated: 11/17/2017 10:51pm
Clear
Clear
 Wind from calm
Wind: Calm
Temperature: 39°F , 4°C
Dew Point: 16°F , -9°C
Humidity: 39%
Barometer: 30.09 inHg , 1019 hPa
Clouds: Clear
Visibility: 10 miles , 16 km
2017/11/18 03:51 KNYC 180351Z AUTO 00000KT 10SM CLR 04/M09 A3009 RMK AO2 SLP182 T00391089 $
 
KCDW - Caldwell, New Jersey, USA
Distance from station: WNW 10mi, 17km
Updated: 11/17/2017 10:53pm
Clear
Clear
 Wind from SSW
Wind: SSW 5 mph , 7 km/h
Temperature: 34°F , 1°C
Wind Chill: 29°F , -2°C
Dew Point: 18°F , -8°C
Humidity: 51%
Barometer: 30.08 inHg , 1018.6 hPa
Clouds: Clear
Visibility: 10 miles , 16 km
2017/11/18 03:53 KCDW 180353Z AUTO 20004KT 10SM CLR 01/M08 A3008 RMK AO2 SLP193 T00061078 TSNO
KLGA - Nyc/La Guardia, New York, USA
Distance from station: ESE 12mi, 19km
Updated: 11/17/2017 10:51pm
Few Clouds
Few Clouds
 Wind from WNW
Wind: WNW 7 mph , 11 km/h
Temperature: 41°F , 5°C
Wind Chill: 36°F , 2°C
Dew Point: 16°F , -9°C
Humidity: 36%
Barometer: 30.07 inHg , 1018.3 hPa
Clouds: Few Clouds
Visibility: 10 miles , 16 km
Cloud details: Few Clouds 18000 ft
2017/11/18 03:51 KLGA 180351Z 29006KT 10SM FEW180 05/M09 A3007 RMK AO2 SLP183 T00501089
 
KEWR - Newark, New Jersey, USA
Distance from station: SSW 12mi, 20km
Updated: 11/17/2017 10:51pm
Partly cloudy
Partly cloudy
 Wind from W
Wind: W 7 mph , 11 km/h
Temperature: 37°F , 3°C
Wind Chill: 32°F , 0°C
Dew Point: 18°F , -8°C
Humidity: 45%
Barometer: 30.08 inHg , 1018.6 hPa
Clouds: Partly cloudy
Visibility: 10 miles , 16 km
Cloud details: Few Clouds 12000 ft
Partly cloudy 25000 ft
2017/11/18 03:51 KEWR 180351Z 28006KT 10SM FEW120 SCT250 03/M08 A3008 RMK AO2 SLP186 T00331083
KMMU - Morristown Muni, New Jersey, USA
Distance from station: WSW 18mi, 29km
Updated: 11/17/2017 11:15pm
Clear
Clear
 Wind from calm
Wind: Calm
Temperature: 27°F , -3°C
Dew Point: 23°F , -5°C
Humidity: 86%
Barometer: 30.08 inHg , 1018.6 hPa
Clouds: Clear
Visibility: 10 miles , 16 km
2017/11/18 04:15 KMMU 180415Z AUTO 00000KT 10SM CLR M03/M05 A3008 RMK AO2
 
KJFK - Nyc/Jfk Arpt, New York, USA
Distance from station: SE 23mi, 36km
Updated: 11/17/2017 10:51pm
Few Clouds
Few Clouds
 Wind from WNW
Wind: WNW 9 mph , 15 km/h
Temperature: 39°F , 4°C
Wind Chill: 33°F , 1°C
Dew Point: 18°F , -8°C
Humidity: 42%
Barometer: 30.09 inHg , 1019 hPa
Clouds: Few Clouds
Visibility: 10 miles , 16 km
Cloud details: Few Clouds 15000 ft
2017/11/18 03:51 KJFK 180351Z 30008KT 10SM FEW150 04/M08 A3009 RMK AO2 SLP188 T00391083
KHPN - White Plains, New York, USA
Distance from station: NE 25mi, 40km
Updated: 11/17/2017 10:56pm
Clear
Clear
 Wind from calm
Wind: Calm
Temperature: 30°F , -1°C
Dew Point: 21°F , -6°C
Humidity: 69%
Barometer: 30.05 inHg , 1017.6 hPa
Clouds: Clear
Visibility: 10 miles , 16 km
2017/11/18 03:56 KHPN 180356Z 00000KT 10SM CLR M01/M06 A3005 RMK AO2 SLP182 T10111061
 
KSMQ - Somerville, New Jersey, USA
Distance from station: WSW 34mi, 55km
Updated: 11/17/2017 10:53pm
Clear
Clear
 Wind from WNW
Wind: WNW 3 mph , 6 km/h
Temperature: 27°F , -3°C
Dew Point: 23°F , -5°C
Humidity: 86%
Barometer: 30.08 inHg , 1018.6 hPa
Clouds: Clear
Visibility: 10 miles , 16 km
2017/11/18 03:53 KSMQ 180353Z AUTO 30003KT 10SM CLR M03/M05 A3008 RMK AO2 SLP187 T10281050
K12N - Andover, New Jersey, USA
Distance from station: WNW 36mi, 57km
Updated: 11/17/2017 8:54pm
NOT Current

 Wind from calm
Wind: Calm
Temperature: 30°F , -1°C
Dew Point: 21°F , -6°C
Humidity: 69%
Barometer: 30.08 inHg , 1018.6 hPa
2017/11/18 01:54 K12N 180154Z AUTO 00000KT M01/M06 A3008 RMK AO1 SLP198 T10111056
 
KFRG - Farmingdale, New York, USA
Distance from station: ESE 36mi, 58km
Updated: 11/17/2017 10:53pm
Clear
Clear
 Wind from WNW
Wind: WNW 5 mph , 7 km/h
Temperature: 36°F , 2°C
Wind Chill: 32°F , 0°C
Dew Point: 19°F , -7°C
Humidity: 52%
Barometer: 30.07 inHg , 1018.3 hPa
Clouds: Clear
Visibility: 10 miles , 16 km
2017/11/18 03:53 KFRG 180353Z 30004KT 10SM CLR 02/M07 A3007 RMK AO2 SLP183 T00221072
KFWN - Sussex, New Jersey, USA
Distance from station: NW 37mi, 60km
Updated: 11/17/2017 10:53pm
Clear
Clear
 Wind from calm
Wind: Calm
Temperature: 28°F , -2°C
Dew Point: 19°F , -7°C
Humidity: 69%
Barometer: 30.06 inHg , 1017.9 hPa
Clouds: Clear
Visibility: 10 miles , 16 km
2017/11/18 03:53 KFWN 180353Z AUTO 00000KT 10SM CLR M02/M07 A3006 RMK AO2 SLP182 T10171072
 
KSWF - Newburgh/Stewart, New York, USA
Distance from station: 0 45mi, 72km
Updated: 11/17/2017 10:45pm
Clear
Clear
 Wind from calm
Wind: Calm
Temperature: 30°F , -1°C
Dew Point: 21°F , -6°C
Humidity: 69%
Barometer: 30.07 inHg , 1018.3 hPa
Clouds: Clear
Visibility: 10 miles , 16 km
2017/11/18 03:45 KSWF 180345Z 00000KT 10SM SKC M01/M06 A3007
KMGJ - Montgomery, New York, USA
Distance from station: NNW 47mi, 75km
Updated: 11/17/2017 10:54pm
Few Clouds
Few Clouds
 Wind from calm
Wind: Calm
Temperature: 25°F , -4°C
Dew Point: 19°F , -7°C
Humidity: 80%
Barometer: 30.05 inHg , 1017.6 hPa
Clouds: Few Clouds
Visibility: 10 miles , 16 km
Cloud details: Few Clouds 12000 ft
2017/11/18 03:54 KMGJ 180354Z AUTO 00000KT 10SM FEW120 M04/M07 A3005 RMK AO2 SLP178 T10441072
 
KBLM - Belmar/Farmdale, New Jersey, USA
Distance from station: S 47mi, 76km
Updated: 11/17/2017 10:56pm
Clear
Clear
 Wind from W
Wind: W 7 mph , 11 km/h
Temperature: 30°F , -1°C
Wind Chill: 23°F , -5°C
Dew Point: 21°F , -6°C
Humidity: 69%
Barometer: 30.09 inHg , 1019 hPa
Clouds: Clear
Visibility: 10 miles , 16 km
2017/11/18 03:56 KBLM 180356Z AUTO 28006KT 10SM CLR M01/M06 A3009 RMK AO2 SLP195 T10061056 FZRANO
KDXR - Danbury, Connecticut, USA
Distance from station: NE 47mi, 76km
Updated: 11/17/2017 10:53pm
Clear
Clear
 Wind from W
Wind: W 3 mph , 6 km/h
Temperature: 30°F , -1°C
Dew Point: 14°F , -10°C
Humidity: 51%
Barometer: 30.05 inHg , 1017.6 hPa
Clouds: Clear
Visibility: 10 miles , 16 km
2017/11/18 03:53 KDXR 180353Z AUTO 27003KT 10SM CLR M01/M10 A3005 RMK AO2 SLP180 T10061100
 
KISP - Islip, New York, USA
Distance from station: E 52mi, 83km
Updated: 11/17/2017 10:56pm
Clear
Clear
 Wind from WSW
Wind: WSW 7 mph , 11 km/h
Temperature: 34°F , 1°C
Wind Chill: 28°F , -2°C
Dew Point: 19°F , -7°C
Humidity: 56%
Barometer: 30.06 inHg , 1017.9 hPa
Clouds: Clear
Visibility: 10 miles , 16 km
2017/11/18 03:56 KISP 180356Z 25006KT 10SM CLR 01/M07 A3006 RMK AO2 SLP180 T00111067
KBDR - Bridgeport, Connecticut, USA
Distance from station: ENE 54mi, 87km
Updated: 11/17/2017 10:52pm
Clear
Clear
 Wind from W
Wind: W 6 mph , 9 km/h
Temperature: 36°F , 2°C
Wind Chill: 31°F , -1°C
Dew Point: 18°F , -8°C
Humidity: 48%
Barometer: 30.06 inHg , 1017.9 hPa
Clouds: Clear
Visibility: 10 miles , 16 km
2017/11/18 03:52 KBDR 180352Z AUTO 26005KT 10SM CLR 02/M08 A3006 RMK AO2 SLP180 T00221078
 
KTTN - Trenton, New Jersey, USA
Distance from station: SW 55mi, 88km
Updated: 11/17/2017 10:53pm
Clear
Clear
 Wind from calm
Wind: Calm
Temperature: 32°F , 0°C
Dew Point: 23°F , -5°C
Humidity: 69%
Barometer: 30.08 inHg , 1018.6 hPa
Clouds: Clear
Visibility: 10 miles , 16 km
2017/11/18 03:53 KTTN 180353Z AUTO 00000KT 10SM CLR 00/M05 A3008 RMK AO2 SLP183 T00001050
KPOU - Poughkeepsie, New York, USA
Distance from station: N 55mi, 89km
Updated: 11/17/2017 10:53pm
Clear
Clear
 Wind from calm
Wind: Calm
Temperature: 25°F , -4°C
Dew Point: 18°F , -8°C
Humidity: 74%
Barometer: 30.06 inHg , 1017.9 hPa
Clouds: Clear
Visibility: 10 miles , 16 km
2017/11/18 03:53 KPOU 180353Z 00000KT 10SM CLR M04/M08 A3006 RMK AO2 SLP177 T10441078
 
KNEL - Lakehurst Nas, New Jersey, USA
Distance from station: SSW 59mi, 95km
Updated: 11/17/2017 8:00pm
NOT Current
Clear
Clear
 Wind from calm
Wind: Calm
Temperature: 28°F , -2°C
Dew Point: 23°F , -5°C
Humidity: 80%
Barometer: 30.09 inHg , 1019 hPa
Clouds: Clear
Visibility: 10 miles , 16 km
2017/11/18 01:00 KNEL 180100Z AUTO 00000KT 10SM CLR M02/M05 A3009 RMK AO2 SLP190 T10221050 FZRANO PNO $
KWRI - Wrightst/Mcguire, New Jersey, USA
Distance from station: SSW 63mi, 102km
Updated: 11/17/2017 10:56pm
Clear
Clear
 Wind from calm
Wind: Calm
Temperature: 30°F , -1°C
Dew Point: 25°F , -4°C
Humidity: 80%
Barometer: 30.07 inHg , 1018.3 hPa
Clouds: Clear
Visibility: 10 miles , 16 km
2017/11/18 03:56 KWRI 180356Z AUTO 00000KT 10SM CLR M01/M04 A3007 RMK AO2 SLP183 T10141041 $
 
KHWV - Shirley, New York, USA
Distance from station: E 64mi, 103km
Updated: 11/17/2017 10:56pm
Clear
Clear
 Wind from W
Wind: W 3 mph , 6 km/h
Temperature: 30°F , -1°C
Dew Point: 23°F , -5°C
Humidity: 75%
Barometer: 30.08 inHg , 1018.6 hPa
Clouds: Clear
Visibility: 10 miles , 16 km
2017/11/18 03:56 KHWV 180356Z AUTO 28003KT 10SM CLR M01/M05 A3008 RMK AO2 SLP184 T10061050
KMJX - Toms River, New Jersey, USA
Distance from station: S 64mi, 104km
Updated: 11/17/2017 10:56pm
Clear
Clear
 Wind from calm
Wind: Calm
Temperature: 27°F , -3°C
Dew Point: 23°F , -5°C
Humidity: 86%
Barometer: 30.10 inHg , 1019.3 hPa
Clouds: Clear
Visibility: 10 miles , 16 km
2017/11/18 03:56 KMJX 180356Z AUTO 00000KT 10SM CLR M03/M05 A3010 RMK AO2 SLP199 T10281050 FZRANO
 
KDYL - Doylestown, Pennsylvania, USA
Distance from station: SW 65mi, 104km
Updated: 11/17/2017 10:54pm
Clear
Clear
 Wind from calm
Wind: Calm
Temperature: 30°F , -1°C
Dew Point: 23°F , -5°C
Humidity: 75%
Barometer: 30.08 inHg , 1018.6 hPa
Clouds: Clear
Visibility: 10 miles , 16 km
2017/11/18 03:54 KDYL 180354Z AUTO 00000KT 10SM CLR M01/M05 A3008 RMK AO2 SLP192 T10111050
KOXC - Oxford/Waterbury, Connecticut, USA
Distance from station: NE 65mi, 105km
Updated: 11/17/2017 10:51pm
Clear
Clear
 Wind from W
Wind: W 3 mph , 6 km/h
Temperature: 30°F , -1°C
Dew Point: 9°F , -13°C
Humidity: 40%
Barometer: 30.03 inHg , 1016.9 hPa
Clouds: Clear
Visibility: 10 miles , 16 km
2017/11/18 03:51 KOXC 180351Z AUTO 27003KT 10SM CLR M01/M13 A3003 RMK AO2 SLP187 T10111128
 
KMSV - Monticello, New York, USA
Distance from station: NNW 69mi, 111km
Updated: 11/17/2017 10:56pm
Clear
Clear
 Wind from W
Wind: W 6 mph , 9 km/h
Temperature: 27°F , -3°C
Wind Chill: 20°F , -7°C
Dew Point: 19°F , -7°C
Humidity: 74%
Barometer: 30.04 inHg , 1017.3 hPa
Clouds: Clear
Visibility: 10 miles , 16 km
2017/11/18 03:56 KMSV 180356Z AUTO 26005KT 10SM CLR M03/M07 A3004 RMK AO2 SLP188 T10331072 FZRANO
KHVN - New Haven/Tweed, Connecticut, USA
Distance from station: ENE 70mi, 112km
Updated: 11/17/2017 10:53pm
Clear
Clear
 Wind from varies
Wind: varies 5 mph , 7 km/h
Temperature: 37°F , 3°C
Wind Chill: 33°F , 1°C
Dew Point: 14°F , -10°C
Humidity: 38%
Barometer: 30.05 inHg , 1017.6 hPa
Clouds: Clear
Visibility: 10 miles , 16 km
2017/11/18 03:53 KHVN 180353Z AUTO VRB04KT 10SM CLR 03/M10 A3005 RMK AO2 SLP177 T00331100
 
KMPO - Mt. Pocono, Pennsylvania, USA
Distance from station: WNW 70mi, 113km
Updated: 11/17/2017 10:53pm
Clear
Clear
 Wind from NNW
Wind: NNW 6 mph , 9 km/h
Temperature: 25°F , -4°C
Wind Chill: 18°F , -8°C
Dew Point: 18°F , -8°C
Humidity: 74%
Barometer: 30.01 inHg , 1016.3 hPa
Clouds: Clear
Visibility: 10 miles , 16 km
2017/11/18 03:53 KMPO 180353Z AUTO 33005KT 10SM CLR M04/M08 A3001 RMK AO2 SLP185 T10391078
KPNE - Philadelphia/Ne, Pennsylvania, USA
Distance from station: SW 72mi, 116km
Updated: 11/17/2017 10:54pm
Clear
Clear
 Wind from calm
Wind: Calm
Temperature: 36°F , 2°C
Dew Point: 25°F , -4°C
Humidity: 65%
Barometer: 30.11 inHg , 1019.6 hPa
Clouds: Clear
Visibility: 10 miles , 16 km
2017/11/18 03:54 KPNE 180354Z AUTO 00000KT 10SM CLR 02/M04 A3011 RMK AO2 SLP197 T00171039
 
KABE - Allentown, Pennsylvania, USA
Distance from station: W 73mi, 117km
Updated: 11/17/2017 10:51pm
Clear
Clear
 Wind from calm
Wind: Calm
Temperature: 30°F , -1°C
Dew Point: 21°F , -6°C
Humidity: 69%
Barometer: 30.07 inHg , 1018.3 hPa
Clouds: Clear
Visibility: 10 miles , 16 km
2017/11/18 03:51 KABE 180351Z 00000KT 10SM CLR M01/M06 A3007 RMK AO2 SLP187 T10111056
KUKT - Quakertown Arp, Pennsylvania, USA
Distance from station: WSW 74mi, 119km
Updated: 11/17/2017 11:15pm
Clear
Clear
 Wind from calm
Wind: Calm
Temperature: 27°F , -3°C
Dew Point: 25°F , -4°C
Humidity: 93%
Barometer: 30.09 inHg , 1019 hPa
Clouds: Clear
Visibility: 10 miles , 16 km
2017/11/18 04:15 KUKT 180415Z AUTO 00000KT 10SM CLR M03/M04 A3009 RMK AO1
 
KVAY - Mount Holly, New Jersey, USA
Distance from station: SSW 75mi, 120km
Updated: 11/17/2017 10:54pm
Clear
Clear
 Wind from calm
Wind: Calm
Temperature: 28°F , -2°C
Dew Point: 27°F , -3°C
Humidity: 93%
Barometer: 30.10 inHg , 1019.3 hPa
Clouds: Clear
Visibility: 10 miles , 16 km
2017/11/18 03:54 KVAY 180354Z AUTO 00000KT 10SM CLR M02/M03 A3010 RMK AO2 SLP193 T10171033 $
KXLL - Allentown Queen, Pennsylvania, USA
Distance from station: WSW 76mi, 122km
Updated: 11/17/2017 11:15pm
Clear
Clear
 Wind from calm
Wind: Calm
Temperature: 32°F , 0°C
Dew Point: 27°F , -3°C
Humidity: 80%
Barometer: 30.09 inHg , 1019 hPa
Clouds: Clear
Visibility: 10 miles , 16 km
2017/11/18 04:15 KXLL 180415Z AUTO 00000KT 10SM CLR 00/M03 A3009 RMK AO2
 
KFOK - Westhampton Beac, New York, USA
Distance from station: E 77mi, 124km
Updated: 11/17/2017 10:53pm
Clear
Clear
 Wind from calm
Wind: Calm
Temperature: 32°F , 0°C
Dew Point: 14°F , -10°C
Humidity: 47%
Barometer: 30.07 inHg , 1018.3 hPa
Clouds: Clear
Visibility: 10 miles , 16 km
2017/11/18 03:53 KFOK 180353Z 00000KT 10SM CLR 00/M10 A3007 RMK AO2 SLP183 T00001100
KLOM - Philly Wings F, Pennsylvania, USA
Distance from station: SW 79mi, 128km
Updated: 11/17/2017 11:15pm
Clear
Clear
 Wind from calm
Wind: Calm
Temperature: 28°F , -2°C
Dew Point: 28°F , -2°C
Humidity: 100%
Barometer: 30.10 inHg , 1019.3 hPa
Clouds: Clear
Visibility: 10 miles , 16 km
2017/11/18 04:15 KLOM 180415Z AUTO 00000KT 10SM CLR M02/M02 A3010 RMK AO1
 
KMMK - Meriden, Connecticut, USA
Distance from station: NE 80mi, 128km
Updated: 11/17/2017 10:53pm
Clear
Clear
 Wind from calm
Wind: Calm
Temperature: 25°F , -4°C
Dew Point: 19°F , -7°C
Humidity: 80%
Barometer: 30.05 inHg , 1017.6 hPa
Clouds: Clear
Visibility: 10 miles , 16 km
2017/11/18 03:53 KMMK 180353Z AUTO 00000KT 10SM CLR M04/M07 A3005 RMK AO2 SLP176 T10391072
KPTW - Pottstown, Pennsylvania, USA
Distance from station: WSW 88mi, 141km
Updated: 11/17/2017 10:54pm
Clear
Clear
 Wind from calm
Wind: Calm
Temperature: 30°F , -1°C
Dew Point: 25°F , -4°C
Humidity: 80%
Barometer: 30.10 inHg , 1019.3 hPa
Clouds: Clear
Visibility: 9 miles , 14 km
2017/11/18 03:54 KPTW 180354Z AUTO 00000KT 9SM CLR M01/M04 A3010 RMK AO2 SLP192 T10111044
 
KSNC - Chester, Connecticut, USA
Distance from station: ENE 90mi, 146km
Updated: 11/17/2017 11:15pm
Clear
Clear
 Wind from W
Wind: W 3 mph , 6 km/h
Temperature: 32°F , 0°C
Dew Point: 12°F , -11°C
Humidity: 44%
Barometer: 30.02 inHg , 1016.6 hPa
Clouds: Clear
Visibility: 10 miles , 16 km
2017/11/18 04:15 KSNC 180415Z AUTO 27003KT 10SM CLR M00/M11 A3002 RMK AO2
KPHL - Philadelphia, Pennsylvania, USA
Distance from station: SW 91mi, 146km
Updated: 11/17/2017 10:54pm
Partly cloudy
Partly cloudy
 Wind from WSW
Wind: WSW 3 mph , 6 km/h
Temperature: 39°F , 4°C
Dew Point: 27°F , -3°C
Humidity: 61%
Barometer: 30.11 inHg , 1019.6 hPa
Clouds: Partly cloudy
Visibility: 10 miles , 16 km
Cloud details: Few Clouds 14000 ft
Partly cloudy 25000 ft
2017/11/18 03:54 KPHL 180354Z 24003KT 10SM FEW140 SCT250 04/M03 A3011 RMK AO2 SLP195 T00391028
 
KAVP - Avoca/Wilkes B., Pennsylvania, USA
Distance from station: WNW 91mi, 147km
Updated: 11/17/2017 10:54pm
Clear
Clear
 Wind from ESE
Wind: ESE 5 mph , 7 km/h
Temperature: 30°F , -1°C
Wind Chill: 25°F , -4°C
Dew Point: 19°F , -7°C
Humidity: 64%
Barometer: 30.05 inHg , 1017.6 hPa
Clouds: Clear
Visibility: 10 miles , 16 km
2017/11/18 03:54 KAVP 180354Z 12004KT 10SM CLR M01/M07 A3005 RMK AO2 SLP182 T10061072
KHFD - Hartford/Brainar, Connecticut, USA
Distance from station: NE 96mi, 155km
Updated: 11/17/2017 10:53pm
Clear
Clear
 Wind from calm
Wind: Calm
Temperature: 28°F , -2°C
Dew Point: 21°F , -6°C
Humidity: 74%
Barometer: 30.04 inHg , 1017.3 hPa
Clouds: Clear
Visibility: 10 miles , 16 km
2017/11/18 03:53 KHFD 180353Z 00000KT 10SM CLR M02/M06 A3004 RMK AO2 SLP171 T10221056
 
KHTO - East Hampton, New York, USA
Distance from station: E 96mi, 155km
Updated: 11/17/2017 11:15pm
Clear
Clear
 Wind from calm
Wind: Calm
Temperature: 30°F , -1°C
Dew Point: 19°F , -7°C
Humidity: 64%
Barometer: 30.05 inHg , 1017.6 hPa
Clouds: Clear
Visibility: 10 miles , 16 km
2017/11/18 04:15 KHTO 180415Z AUTO 00000KT 10SM CLR M01/M07 A3005 RMK AO2 T10131075
KACY - Atlantic City, New Jersey, USA
Distance from station: SSW 99mi, 160km
Updated: 11/17/2017 10:54pm
Clear
Clear
 Wind from calm
Wind: Calm
Temperature: 36°F , 2°C
Dew Point: 27°F , -3°C
Humidity: 70%
Barometer: 30.10 inHg , 1019.3 hPa
Clouds: Clear
Visibility: 10 miles , 16 km
2017/11/18 03:54 KACY 180354Z 00000KT 10SM CLR 02/M03 A3010 RMK AO2 SLP194 T00171028